• Join FlightAware (Why Join?)
  • Login
  • US Flag 
01:36AM EDT


 

Airport Tracker/Info


-or-


 

Live Flight TrackerFlight Track Log ✈ EJA396 ✈ 02-May-2013 ✈ KFLL - KAPF

Flight Track Log - Related Links

Times and Time Zones

All times are in EDT time to prevent confusion due to time zone crossing. See the EJA396 flight status page for this flight to view local times or setup timezone preferences in your user account.

Time Position Orientation Groundspeed Altitude Reporting Facility
EDT Latitude Longitude Course Direction KTS MPH feet Rate Location/Type
05:41PM 26.0747 -80.1458 347° North 109 125 1,000  Level Miami Center
05:42PM 26.1267 -80.1589 347° North 197 227 3,700 2,100 Climbing Miami Center
05:43PM 26.1525 -80.2153 297° West 200 230 5,700 1,920 Climbing Miami Center
05:44PM 26.1761 -80.2736 294° West 204 235 7,700 1,080 Climbing Miami Center
05:45PM 26.2039 -80.3394 295° West 254 292 8,000 360 Climbing Miami Center
05:47PM 26.2531 -80.4658 293° West 285 328 8,700 720 Climbing Miami Center
05:48PM 26.2806 -80.5361 294° West 277 319 10,000 600 Climbing Miami Center
05:49PM 26.3347 -80.6258 304° West 305 351 10,000  Level Miami Center
05:50PM 26.3594 -80.7172 287° West 306 352 10,000  Level Miami Center
05:51PM 26.3297 -80.8111 251° West 304 350 10,000 -720 Level Miami Center
05:52PM 26.3067 -80.8961 253° West 304 350 8,600 -1,500 Descending Miami Center
05:53PM 26.2939 -80.9792 260° West 282 325 7,000 -1,380 Descending Miami Center
05:54PM 26.2833 -81.0553 261° West 282 325 5,900 -600 Descending Miami Center
05:55PM 26.2706 -81.1381 260° West 282 325 5,900  Level Miami Center
05:56PM 26.2533 -81.2208 257° West 277 319 5,900  Level Miami Center
05:57PM 26.2322 -81.2989 253° West 271 312 5,900  Level Miami Center
05:58PM 26.2006 -81.3739 245° Southwest 286 329 5,900 -300 Level Miami Center
05:59PM 26.1669 -81.4489 243° Southwest 269 310 5,300 -960 Descending Miami Center
06:00PM 26.1333 -81.5217 243° Southwest 269 310 4,000 -1,080 Descending Miami Center
06:01PM 26.1042 -81.5853 243° Southwest 253 291 3,200 -600 Descending Miami Center
06:02PM 26.0814 -81.6422 246° West 229 264 2,900 -300 Descending Miami Center
06:04PM 26.1500 -81.7667 283° West  Level FlightAware Approximate
06:11PM 26.1524 -81.7756 283° West  Level Estimated
06:12PM 26.1524 -81.7756 283° West  Level Estimated